ADDS TAF Board (Experimental) INFO Settings
IDs: Format: Expanded Condensed

KORD - Chicago/O'Hare Intl, IL, US

Issued at 1936 UTC 01 Aug 2015
Updated at: 2014 UTC 01 Aug 2015
Time1951Z 01/21Z 01/22Z 01/23Z 02/00Z 02/01Z 02/02Z 02/03Z 02/04Z 02/05Z 02/06Z 02/07Z 02/08Z 02/09Z
Type OBS PRVL PRVL PRVL PRVL PRVL PRVL PRVL PRVL PRVL PRVL PRVL PRVL PRVL
VIS 10 >6 >6 >6 >6 >6 >6 >6 >6 >6 >6 >6 >6 >6
CIG -- -- -- -- -- -- -- -- -- -- -- -- -- 200
Cover SCT SCT FEW FEW FEW FEW SCT SCT SCT SCT SCT SCT SCT BKN
FltCat VFR VFR VFR VFR VFR VFR VFR VFR VFR VFR VFR VFR VFR VFR
WX -- -- -- -- -- -- -- -- -- -- -- -- -- --
WDir 290 250 280 280 280 280 260 260 260 260 260 260 260 230
WSpd 14 15 12 12 12 12 8 8 8 8 8 8 8 11
WGst 19 20 18 18 18 18 -- -- -- -- -- -- -- --
R04/22
XWnd 13 8 10 10 10 10 5 5 5 5 5 5 5 2
XGst 18 10 16 16 16 16 -- -- -- -- -- -- -- --
HWnd -5 -13 -6 -6 -6 -6 -6 -6 -6 -6 -6 -6 -6 -11
HGst -6 -17 -9 -9 -9 -9 -- -- -- -- -- -- -- --
R09/27
XWnd 5 -5 2 2 2 2 -1 -1 -1 -1 -1 -1 -1 -7
XGst 6 -7 3 3 3 3 -- -- -- -- -- -- -- --
HWnd -13 -14 -12 -12 -12 -12 -8 -8 -8 -8 -8 -8 -8 -8
HGst -18 -19 -18 -18 -18 -18 -- -- -- -- -- -- -- --
R10/28
XWnd 5 -5 2 2 2 2 -1 -1 -1 -1 -1 -1 -1 -7
XGst 6 -7 3 3 3 3 -- -- -- -- -- -- -- --
HWnd -13 -14 -12 -12 -12 -12 -8 -8 -8 -8 -8 -8 -8 -8
HGst -18 -19 -18 -18 -18 -18 -- -- -- -- -- -- -- --
R14/32
XWnd -7 -14 -8 -8 -8 -8 -7 -7 -7 -7 -7 -7 -7 -11
XGst -9 -19 -12 -12 -12 -12 -- -- -- -- -- -- -- --
HWnd -12 -5 -9 -9 -9 -9 -4 -4 -4 -4 -4 -4 -4 0
HGst -16 -7 -14 -14 -14 -14 -- -- -- -- -- -- -- --

NOTE: TEMPO conditions in [brackets]. Keep in mind TEMPO conditions might be better (lower impact) than prevailing conditions.

Raw TAF
KORD 011936Z 0119/0224 25015G20KT P6SM SCT080
  FM012200 28012G18KT P6SM FEW080
  FM020200 26008KT P6SM SCT200
  FM020900 23011KT P6SM SCT060 BKN200
  FM021500 23014G24KT P6SM VCSH SCT060 BKN100
  PROB30 0216/0218 4SM -TSRA BKN040CB
  FM021800 21019G27KT P6SM SCT050 SCT100


Raw METAR
KORD 011951Z 29014G19KT 10SM SCT065 SCT250 30/13 A2993 RMK AO2 SLP128 T03000133
KORD 011851Z 28014G20KT 10SM SCT060 SCT090 SCT130 30/13 A2994 RMK AO2 SLP133 T03000133
KORD 011751Z 28012KT 10SM FEW060 FEW090 SCT130 28/13 A2997 RMK AO2 SLP143 T02830128 10289 20189 58004

METAR Board
Radar Display
Forecast Discussion

TAF Board Legend

Potential Impact
Threat None Slight Moderate High
Visibility (sm) ≥5.1 5.1>X≥3 3>X≥1 <1
Ceiling (100 ft) ≥30.1 30.1>X≥10 10>X≥5 <5
Wind Speed (kt) <10 10≤X<20 20≤X<30 ≥30
Wind Gust (kt) <15 15≤X<25 25≤X<35 ≥35
Weather No Wx Reported VCTS,-TS,-FZRA,SN TS,FZRA +TS,+FZRA,+SN